Pagina principale
METAR-TAF:

METAR-TAF

Aeroporti :

Aeroporto Internazionale di Baghdad

Baghdad, Iraq

latitudine: 33-15-45N, longitudine: 44-14-04E, altezza: 35 m

Osservazione

Il bollettino è stato emesso 41 minuti fa, alle 12:00 UTC
Vento 16 kt da ovest
Temperature 48°C
Umidità 10%
Pressione 1002 hPa
Visibilità 10 km o più
nessuna nube inferiore a 1500 m e nessun cumulonembo

METAR: ORBI 261200Z 28016KT CAVOK 48/08 Q1002

Ora: 15:41 (12:41 UTC)

Previsione

Il bollettino è stato emesso 2 ore e 41 minuti fa, alle 10:00 UTC
Previsione valida dal 26 alle 12 UTC al 27 alle 12 UTC
Vento 15 kt da ovest/nord-ovest
Visibilità: 8000 m

TAF: ORBI 261000Z 2612/2712 30015KT 8000 NSC

Osservazioni e previsioni meteorologiche di più di 4000 aeroporti (messaggi METAR e TAF).

Le stazioni disponibili sono rappresentate dai dischi gialli e rossi sulla carta.

Puntare il mouse per vedere il nome della stazione.

Clicca sopra per visualizzare le osservazioni e previsioni meteorologiche.

Per cambiare la mappa : fare clic sui pulsanti verdi con una croce nera per ingrandire, il pulsante verde con un trattino per diminuire, o sulla freccia verde per le mappe adiacenti.


METAR-TAF: